Time;durP1;ratioP1;P1;durP2;ratioP2;P2;SDS_P1;SDS_P2;PMS_P1;PMS_P2;Temp;Humidity;BMP_temperature;BMP_pressure;BME280_temperature;BME280_humidity;BME280_pressure;Samples;Min_cycle;Max_cycle;Signal;HPM_P1;HPM_P2
2023/11/07 00:01:00;;;;;;;4.82;4.20;;;;;;;;;;6153717;23;20013;-73
2023/11/07 00:03:26;;;;;;;4.93;4.38;;;;;;;;;;6179868;23;20068;-73
2023/11/07 00:05:52;;;;;;;4.93;4.45;;;;;;;;;;6156226;23;20020;-72
2023/11/07 00:08:18;;;;;;;6.82;6.30;;;;;;;;;;6155543;23;20013;-72
2023/11/07 00:10:44;;;;;;;6.50;5.90;;;;;;;;;;6151132;23;20035;-73
2023/11/07 00:13:10;;;;;;;5.18;4.78;;;;;;;;;;6151000;23;20088;-73
2023/11/07 00:15:37;;;;;;;7.03;6.43;;;;;;;;;;6151061;23;20119;-72
2023/11/07 00:18:03;;;;;;;5.70;5.20;;;;;;;;;;6151243;23;20014;-73
2023/11/07 00:20:29;;;;;;;5.72;5.07;;;;;;;;;;6152535;23;20068;-72
2023/11/07 00:22:56;;;;;;;5.10;4.65;;;;;;;;;;6150978;23;20092;-72
2023/11/07 00:25:22;;;;;;;7.32;4.82;;;;;;;;;;6150703;23;20006;-73
2023/11/07 00:27:48;;;;;;;4.07;3.78;;;;;;;;;;6151130;23;20341;-73
2023/11/07 00:30:14;;;;;;;3.95;3.58;;;;;;;;;;6151938;23;20469;-71
2023/11/07 00:32:40;;;;;;;3.42;3.22;;;;;;;;;;6151996;23;20021;-74
2023/11/07 00:35:07;;;;;;;4.38;4.05;;;;;;;;;;6150669;23;20017;-73
2023/11/07 00:37:34;;;;;;;4.57;4.22;;;;;;;;;;6150904;23;20068;-73
2023/11/07 00:40:00;;;;;;;4.70;4.40;;;;;;;;;;6150717;23;20040;-72
2023/11/07 00:42:26;;;;;;;5.13;4.78;;;;;;;;;;6151634;23;20059;-73
2023/11/07 00:44:52;;;;;;;4.22;3.92;;;;;;;;;;6150820;23;20017;-73
2023/11/07 00:47:18;;;;;;;7.60;4.72;;;;;;;;;;6175215;23;20052;-73
2023/11/07 00:49:45;;;;;;;4.50;3.50;;;;;;;;;;6152320;23;20029;-74
2023/11/07 00:52:11;;;;;;;5.18;4.88;;;;;;;;;;6126091;23;20442;-72
2023/11/07 00:54:37;;;;;;;4.85;4.53;;;;;;;;;;6150789;23;20020;-72
2023/11/07 00:57:03;;;;;;;4.45;4.15;;;;;;;;;;6175453;23;20014;-74
2023/11/07 00:59:29;;;;;;;4.45;4.15;;;;;;;;;;6155211;23;20014;-73
2023/11/07 01:01:55;;;;;;;4.78;4.47;;;;;;;;;;6155030;23;20669;-72
2023/11/07 01:04:21;;;;;;;5.05;4.65;;;;;;;;;;6155613;23;20137;-72
2023/11/07 01:06:47;;;;;;;6.13;5.60;;;;;;;;;;6126025;23;20014;-74
2023/11/07 01:09:13;;;;;;;5.65;5.35;;;;;;;;;;6150177;23;20025;-73
2023/11/07 01:11:40;;;;;;;5.50;5.00;;;;;;;;;;6150127;23;20020;-73
2023/11/07 01:14:06;;;;;;;5.50;5.10;;;;;;;;;;6151948;23;20013;-74
2023/11/07 01:16:32;;;;;;;5.93;4.53;;;;;;;;;;6174791;23;20347;-72
2023/11/07 01:18:58;;;;;;;5.32;4.95;;;;;;;;;;6152253;23;20006;-73
2023/11/07 01:21:25;;;;;;;5.18;4.78;;;;;;;;;;6150052;23;20018;-72
2023/11/07 01:23:50;;;;;;;4.88;4.38;;;;;;;;;;6150527;23;20021;-74
2023/11/07 01:26:16;;;;;;;5.28;4.78;;;;;;;;;;6150051;23;20375;-73
2023/11/07 01:28:43;;;;;;;4.05;3.75;;;;;;;;;;6150564;23;20285;-73
2023/11/07 01:31:09;;;;;;;4.97;4.60;;;;;;;;;;6151570;23;20056;-73
2023/11/07 01:33:35;;;;;;;3.97;3.78;;;;;;;;;;6151546;23;20029;-71
2023/11/07 01:36:01;;;;;;;6.07;5.47;;;;;;;;;;6153539;23;20044;-74
2023/11/07 01:38:28;;;;;;;5.03;4.60;;;;;;;;;;6153721;23;20037;-73
2023/11/07 01:40:53;;;;;;;3.95;3.60;;;;;;;;;;6152879;23;20065;-73
2023/11/07 01:43:21;;;;;;;5.00;4.60;;;;;;;;;;6152402;23;20029;-72
2023/11/07 01:45:47;;;;;;;5.05;4.75;;;;;;;;;;6152169;23;20016;-73
2023/11/07 01:48:13;;;;;;;5.88;5.25;;;;;;;;;;6151998;23;20025;-73
2023/11/07 01:50:39;;;;;;;4.55;4.15;;;;;;;;;;6152027;23;20025;-72
2023/11/07 01:53:05;;;;;;;4.75;4.35;;;;;;;;;;6153850;23;20014;-73
2023/11/07 01:55:32;;;;;;;4.75;4.35;;;;;;;;;;6153711;23;20473;-74
2023/11/07 01:58:01;;;;;;;4.60;4.30;;;;;;;;;;6103536;23;20017;-73
2023/11/07 02:00:28;;;;;;;4.93;4.53;;;;;;;;;;6152024;23;20017;-72
2023/11/07 02:02:54;;;;;;;6.40;5.85;;;;;;;;;;6152402;23;20018;-73
2023/11/07 02:05:20;;;;;;;5.90;5.00;;;;;;;;;;6154217;23;20064;-73
2023/11/07 02:07:45;;;;;;;6.30;5.80;;;;;;;;;;6166130;23;20092;-73
2023/11/07 02:10:11;;;;;;;5.20;4.10;;;;;;;;;;6159725;23;20021;-73
2023/11/07 02:12:38;;;;;;;6.35;5.85;;;;;;;;;;6158537;23;20069;-73
2023/11/07 02:15:19;;;;;;;7.97;7.25;;;;;;;;;;6154085;23;20429;-73
2023/11/07 02:17:46;;;;;;;6.47;5.95;;;;;;;;;;6128706;23;20465;-73
2023/11/07 02:20:15;;;;;;;7.85;5.65;;;;;;;;;;6154206;23;20021;-73
2023/11/07 02:22:41;;;;;;;6.90;5.57;;;;;;;;;;6155046;23;20117;-74
2023/11/07 02:25:12;;;;;;;7.18;6.68;;;;;;;;;;6155317;23;20105;-74
2023/11/07 02:27:38;;;;;;;6.15;5.68;;;;;;;;;;6154403;23;20013;-74
2023/11/07 02:30:04;;;;;;;5.25;4.75;;;;;;;;;;6157782;23;20378;-73
2023/11/07 02:32:30;;;;;;;6.25;5.75;;;;;;;;;;6159160;23;20431;-73
2023/11/07 02:34:56;;;;;;;7.03;6.43;;;;;;;;;;6157466;23;20442;-73
2023/11/07 02:37:23;;;;;;;6.35;5.68;;;;;;;;;;6153372;23;20505;-74
2023/11/07 02:39:49;;;;;;;6.00;4.68;;;;;;;;;;6152110;23;20370;-72
2023/11/07 02:42:15;;;;;;;5.47;5.10;;;;;;;;;;6176014;23;20013;-73
2023/11/07 02:44:42;;;;;;;5.80;5.30;;;;;;;;;;6153361;23;20532;-73
2023/11/07 02:47:08;;;;;;;4.50;4.20;;;;;;;;;;6153384;23;20013;-72
2023/11/07 02:49:34;;;;;;;5.25;4.63;;;;;;;;;;6153401;23;20484;-72
2023/11/07 02:52:00;;;;;;;6.13;5.03;;;;;;;;;;6153112;23;20070;-74
2023/11/07 02:54:26;;;;;;;4.47;4.10;;;;;;;;;;6101825;23;20096;-72
2023/11/07 02:56:52;;;;;;;6.82;4.38;;;;;;;;;;6151547;23;20385;-73
2023/11/07 02:59:18;;;;;;;4.63;4.32;;;;;;;;;;6151504;23;20010;-72
2023/11/07 03:01:44;;;;;;;6.25;5.50;;;;;;;;;;6151495;23;20029;-73
2023/11/07 03:04:11;;;;;;;4.07;3.78;;;;;;;;;;6153100;23;20485;-73
2023/11/07 03:06:37;;;;;;;5.28;4.10;;;;;;;;;;6151066;23;20370;-72
2023/11/07 03:09:04;;;;;;;5.20;4.78;;;;;;;;;;6151783;23;20025;-73
2023/11/07 03:11:30;;;;;;;4.72;4.43;;;;;;;;;;6126392;23;20048;-73
2023/11/07 03:13:56;;;;;;;4.53;4.22;;;;;;;;;;6153086;23;20014;-71
2023/11/07 03:16:22;;;;;;;4.40;4.00;;;;;;;;;;6151237;23;20065;-74
2023/11/07 03:18:48;;;;;;;4.55;4.15;;;;;;;;;;6151728;23;20147;-73
2023/11/07 03:21:15;;;;;;;4.20;3.90;;;;;;;;;;6151269;23;20013;-74
2023/11/07 03:23:41;;;;;;;3.90;3.60;;;;;;;;;;6102770;23;20017;-74
2023/11/07 03:26:07;;;;;;;3.78;3.47;;;;;;;;;;6152835;23;20516;-72
2023/11/07 03:28:33;;;;;;;4.10;3.47;;;;;;;;;;6151187;23;20076;-73
2023/11/07 03:30:59;;;;;;;3.67;3.47;;;;;;;;;;6152183;23;20120;-73
2023/11/07 03:33:25;;;;;;;4.38;4.03;;;;;;;;;;6152778;23;20096;-74
2023/11/07 03:35:52;;;;;;;4.30;3.90;;;;;;;;;;6126507;23;20014;-73
2023/11/07 03:38:19;;;;;;;3.90;3.42;;;;;;;;;;6152338;23;20013;-74
2023/11/07 03:40:46;;;;;;;3.70;3.40;;;;;;;;;;6152284;23;20529;-73
2023/11/07 03:43:12;;;;;;;4.30;4.00;;;;;;;;;;6150692;23;20112;-74
2023/11/07 03:45:38;;;;;;;4.22;3.92;;;;;;;;;;6150896;23;20513;-73
2023/11/07 03:48:04;;;;;;;4.15;3.85;;;;;;;;;;6151156;23;20017;-73
2023/11/07 03:50:31;;;;;;;7.70;3.75;;;;;;;;;;6151051;23;20046;-73
2023/11/07 03:52:57;;;;;;;3.80;3.50;;;;;;;;;;6151339;23;20021;-73
2023/11/07 03:55:23;;;;;;;3.13;2.92;;;;;;;;;;6150928;23;20366;-73
2023/11/07 03:57:49;;;;;;;3.15;2.88;;;;;;;;;;6152513;23;20013;-75
2023/11/07 04:00:15;;;;;;;3.95;3.65;;;;;;;;;;6150778;23;20025;-73
2023/11/07 04:02:41;;;;;;;3.38;3.17;;;;;;;;;;6152050;23;20009;-73
2023/11/07 04:05:10;;;;;;;2.92;2.83;;;;;;;;;;6126395;23;20021;-73
2023/11/07 04:07:36;;;;;;;3.13;2.92;;;;;;;;;;6150540;23;20021;-74
2023/11/07 04:10:05;;;;;;;3.08;2.88;;;;;;;;;;6152475;23;20025;-73
2023/11/07 04:12:34;;;;;;;3.50;3.22;;;;;;;;;;6175847;23;20024;-74
2023/11/07 04:15:04;;;;;;;3.15;2.95;;;;;;;;;;6153985;23;20020;-75
2023/11/07 04:17:30;;;;;;;2.87;2.67;;;;;;;;;;6153342;23;20100;-74
2023/11/07 04:19:56;;;;;;;2.65;2.55;;;;;;;;;;6153117;23;20544;-74
2023/11/07 04:22:22;;;;;;;2.47;2.38;;;;;;;;;;6151589;23;20009;-74
2023/11/07 04:24:48;;;;;;;3.00;2.80;;;;;;;;;;6154940;23;20021;-73
2023/11/07 04:27:14;;;;;;;3.05;2.85;;;;;;;;;;6152133;23;20013;-74
2023/11/07 04:29:41;;;;;;;3.28;3.00;;;;;;;;;;6127317;23;20084;-73
2023/11/07 04:32:07;;;;;;;3.72;3.42;;;;;;;;;;6151465;23;20017;-73
2023/11/07 04:34:34;;;;;;;2.65;2.50;;;;;;;;;;6151295;23;20048;-74
2023/11/07 04:37:00;;;;;;;2.80;2.60;;;;;;;;;;6150769;23;20012;-73
2023/11/07 04:39:26;;;;;;;3.53;3.33;;;;;;;;;;6148144;23;20017;-73
2023/11/07 04:41:53;;;;;;;4.35;3.10;;;;;;;;;;6149770;23;20104;-73
2023/11/07 04:44:22;;;;;;;3.63;3.42;;;;;;;;;;6123694;23;20049;-73
2023/11/07 04:46:48;;;;;;;3.08;2.88;;;;;;;;;;6149866;23;20020;-73
2023/11/07 04:49:14;;;;;;;2.58;2.47;;;;;;;;;;6149438;23;20025;-72
2023/11/07 04:51:40;;;;;;;3.05;2.85;;;;;;;;;;6147920;23;20020;-74
2023/11/07 04:54:06;;;;;;;2.80;2.60;;;;;;;;;;6150162;23;20079;-73
2023/11/07 04:56:33;;;;;;;4.38;3.85;;;;;;;;;;6152078;23;20421;-72
2023/11/07 04:58:59;;;;;;;2.90;2.67;;;;;;;;;;6153241;23;20009;-73
2023/11/07 05:01:25;;;;;;;3.58;3.28;;;;;;;;;;6152117;23;20024;-72
2023/11/07 05:03:51;;;;;;;3.90;3.60;;;;;;;;;;6153190;23;20036;-71
2023/11/07 05:06:19;;;;;;;3.33;3.13;;;;;;;;;;6153438;23;20018;-72
2023/11/07 05:08:45;;;;;;;4.22;3.92;;;;;;;;;;6156060;23;20512;-72
2023/11/07 05:11:17;;;;;;;3.30;3.10;;;;;;;;;;6152609;23;20021;-71
2023/11/07 05:13:44;;;;;;;2.22;2.13;;;;;;;;;;6152993;23;20092;-72
2023/11/07 05:16:10;;;;;;;4.28;3.95;;;;;;;;;;6152157;23;20076;-72
2023/11/07 05:18:37;;;;;;;3.20;3.00;;;;;;;;;;6152111;23;20020;-73
2023/11/07 05:21:04;;;;;;;2.80;2.70;;;;;;;;;;6151296;23;20033;-72
2023/11/07 05:23:30;;;;;;;3.92;3.35;;;;;;;;;;6152570;23;20096;-73
2023/11/07 05:25:57;;;;;;;3.03;2.92;;;;;;;;;;6151867;23;20009;-73
2023/11/07 05:28:23;;;;;;;2.42;2.33;;;;;;;;;;6154091;23;20047;-73
2023/11/07 05:30:49;;;;;;;2.13;2.03;;;;;;;;;;6153058;23;20025;-72
2023/11/07 05:33:15;;;;;;;3.00;2.80;;;;;;;;;;6152535;23;20013;-74
2023/11/07 05:35:44;;;;;;;4.68;2.22;;;;;;;;;;6152120;23;20013;-73
2023/11/07 05:38:10;;;;;;;2.35;2.20;;;;;;;;;;6151932;23;20096;-73
2023/11/07 05:40:36;;;;;;;3.60;2.60;;;;;;;;;;6151674;23;20426;-73
2023/11/07 05:43:02;;;;;;;2.08;1.98;;;;;;;;;;6101469;23;20100;-73
2023/11/07 05:45:28;;;;;;;1.90;1.90;;;;;;;;;;6151696;23;20013;-73
2023/11/07 05:47:55;;;;;;;2.42;2.33;;;;;;;;;;6150277;23;20025;-73
2023/11/07 05:50:25;;;;;;;2.50;2.40;;;;;;;;;;6151727;23;20499;-73
2023/11/07 05:52:51;;;;;;;2.53;2.42;;;;;;;;;;6174622;23;20018;-73
2023/11/07 05:55:18;;;;;;;3.03;2.65;;;;;;;;;;6151800;23;20441;-72
2023/11/07 05:57:44;;;;;;;1.90;1.80;;;;;;;;;;6151357;23;20024;-72
2023/11/07 06:00:11;;;;;;;3.63;2.15;;;;;;;;;;6151725;23;20014;-73
2023/11/07 06:02:39;;;;;;;2.22;2.13;;;;;;;;;;6149973;23;20040;-72
2023/11/07 06:05:06;;;;;;;1.25;1.20;;;;;;;;;;6151780;23;20026;-73
2023/11/07 06:07:32;;;;;;;2.42;1.73;;;;;;;;;;6149801;23;20013;-73
2023/11/07 06:10:00;;;;;;;2.50;2.35;;;;;;;;;;6149847;23;20022;-72
2023/11/07 06:12:26;;;;;;;2.03;1.90;;;;;;;;;;6151394;23;20653;-74
2023/11/07 06:14:52;;;;;;;1.90;1.73;;;;;;;;;;6150429;23;20013;-73
2023/11/07 06:17:18;;;;;;;2.00;1.90;;;;;;;;;;6150259;23;20014;-75
2023/11/07 06:19:47;;;;;;;1.98;1.88;;;;;;;;;;6174468;23;20395;-74
2023/11/07 06:22:13;;;;;;;3.83;2.20;;;;;;;;;;6125546;23;20024;-75
2023/11/07 06:24:39;;;;;;;2.85;2.10;;;;;;;;;;6149700;23;20017;-74
2023/11/07 06:27:05;;;;;;;2.10;2.00;;;;;;;;;;6151445;23;20016;-73
2023/11/07 06:29:33;;;;;;;1.33;1.33;;;;;;;;;;6149426;23;20026;-74
2023/11/07 06:31:59;;;;;;;2.13;2.03;;;;;;;;;;6152169;23;20009;-74
2023/11/07 06:34:26;;;;;;;1.50;1.50;;;;;;;;;;6127265;23;20020;-75
2023/11/07 06:36:52;;;;;;;5.55;2.00;;;;;;;;;;6152541;23;20088;-74
2023/11/07 06:39:19;;;;;;;2.33;2.13;;;;;;;;;;6152698;23;20077;-74
2023/11/07 06:41:44;;;;;;;1.75;1.73;;;;;;;;;;6152487;23;20100;-75
2023/11/07 06:44:12;;;;;;;2.17;1.85;;;;;;;;;;6152743;23;20021;-75
2023/11/07 06:46:41;;;;;;;2.00;1.90;;;;;;;;;;6152561;23;20017;-75
2023/11/07 06:49:08;;;;;;;2.08;1.80;;;;;;;;;;6152344;23;20021;-76
2023/11/07 06:51:34;;;;;;;2.10;2.00;;;;;;;;;;6152288;23;20021;-76
2023/11/07 06:54:02;;;;;;;2.45;1.55;;;;;;;;;;6126386;23;20017;-74
2023/11/07 06:56:28;;;;;;;2.50;2.30;;;;;;;;;;6150823;23;20021;-74
2023/11/07 06:58:54;;;;;;;2.72;2.53;;;;;;;;;;6152546;23;20521;-74
2023/11/07 07:01:20;;;;;;;3.20;1.77;;;;;;;;;;6152757;23;20354;-78
2023/11/07 07:03:46;;;;;;;1.75;1.75;;;;;;;;;;6152237;23;20179;-75
2023/11/07 07:06:12;;;;;;;2.25;2.10;;;;;;;;;;6152737;23;20559;-75
2023/11/07 07:08:39;;;;;;;4.28;2.00;;;;;;;;;;6152384;23;20017;-74
2023/11/07 07:11:05;;;;;;;1.90;1.80;;;;;;;;;;6150631;23;20057;-76
2023/11/07 07:13:31;;;;;;;3.63;2.00;;;;;;;;;;6152537;23;20009;-75
2023/11/07 07:15:59;;;;;;;2.08;1.98;;;;;;;;;;6167511;23;20022;-75
2023/11/07 07:18:27;;;;;;;2.35;2.15;;;;;;;;;;6152441;23;20095;-75
2023/11/07 07:20:55;;;;;;;1.52;1.42;;;;;;;;;;6151551;23;20009;-75
2023/11/07 07:23:24;;;;;;;1.90;1.80;;;;;;;;;;6164344;23;20393;-73
2023/11/07 07:25:53;;;;;;;2.22;2.13;;;;;;;;;;6209235;23;20013;-74
2023/11/07 07:28:20;;;;;;;1.80;1.70;;;;;;;;;;6210026;23;20012;-74
2023/11/07 07:30:47;;;;;;;1.73;1.63;;;;;;;;;;6209155;23;20029;-73
2023/11/07 07:33:16;;;;;;;2.22;2.03;;;;;;;;;;6175285;23;20036;-74
2023/11/07 07:35:45;;;;;;;2.00;1.83;;;;;;;;;;6209626;23;20023;-74
2023/11/07 07:38:11;;;;;;;1.90;1.80;;;;;;;;;;6208959;23;20035;-74
2023/11/07 07:40:38;;;;;;;1.70;1.60;;;;;;;;;;6211357;23;20051;-73
2023/11/07 07:43:10;;;;;;;1.63;1.52;;;;;;;;;;6123757;23;20022;-76
2023/11/07 07:45:42;;;;;;;2.08;1.98;;;;;;;;;;6072100;23;85882;-75
2023/11/07 07:49:00;;;;;;;1.85;1.48;;;;;;;;;;4945794;22;20211;-78
2023/11/07 07:51:27;;;;;;;1.70;1.70;;;;;;;;;;5018257;28;20399;-75
2023/11/07 07:53:54;;;;;;;1.95;1.80;;;;;;;;;;5044604;28;20506;-74
2023/11/07 07:56:20;;;;;;;2.47;1.88;;;;;;;;;;5010137;23;20046;-77
2023/11/07 07:58:47;;;;;;;2.92;1.52;;;;;;;;;;5007078;28;20041;-76
2023/11/07 08:01:18;;;;;;;2.00;1.90;;;;;;;;;;4973405;28;20102;-76
2023/11/07 08:03:44;;;;;;;1.13;1.13;;;;;;;;;;4973014;28;20034;-75
2023/11/07 08:06:11;;;;;;;2.55;1.90;;;;;;;;;;4971596;28;20492;-77
2023/11/07 08:08:38;;;;;;;2.80;2.50;;;;;;;;;;4985337;28;20074;-75
2023/11/07 08:11:04;;;;;;;3.33;1.80;;;;;;;;;;4990309;28;20045;-75
2023/11/07 08:13:30;;;;;;;2.08;1.90;;;;;;;;;;4990756;28;20555;-76
2023/11/07 08:15:56;;;;;;;4.18;1.65;;;;;;;;;;4984319;28;20117;-75
2023/11/07 08:18:23;;;;;;;3.35;2.17;;;;;;;;;;4988956;28;20129;-74
2023/11/07 08:20:50;;;;;;;2.60;2.40;;;;;;;;;;4986781;28;20038;-74
2023/11/07 08:23:16;;;;;;;2.85;2.55;;;;;;;;;;4981705;28;20089;-74
2023/11/07 08:25:41;;;;;;;1.92;1.75;;;;;;;;;;4984225;28;20042;-75
2023/11/07 08:28:09;;;;;;;2.75;2.55;;;;;;;;;;4986134;28;20050;-75
2023/11/07 08:30:37;;;;;;;3.67;3.38;;;;;;;;;;5001617;23;20055;-78
2023/11/07 08:33:03;;;;;;;2.05;1.95;;;;;;;;;;4999515;28;20033;-75
2023/11/07 08:35:29;;;;;;;2.40;1.92;;;;;;;;;;4972201;28;20370;-78
2023/11/07 08:37:55;;;;;;;1.80;1.70;;;;;;;;;;5001208;28;20125;-78
2023/11/07 08:40:21;;;;;;;3.67;2.63;;;;;;;;;;5010691;28;20080;-79
2023/11/07 08:42:48;;;;;;;2.58;2.47;;;;;;;;;;4977012;28;20069;-74
2023/11/07 08:45:18;;;;;;;2.80;2.60;;;;;;;;;;4985027;28;20041;-76
2023/11/07 08:47:45;;;;;;;2.90;2.70;;;;;;;;;;4988997;28;20041;-75
2023/11/07 08:50:12;;;;;;;2.72;2.53;;;;;;;;;;4985244;28;20034;-75
2023/11/07 08:52:41;;;;;;;2.72;2.53;;;;;;;;;;4984270;28;20705;-75
2023/11/07 08:55:08;;;;;;;2.50;2.35;;;;;;;;;;4958819;28;20035;-76
2023/11/07 08:57:38;;;;;;;1.50;1.40;;;;;;;;;;4985875;28;20054;-76
2023/11/07 09:00:08;;;;;;;3.78;3.22;;;;;;;;;;4989571;28;20687;-78
2023/11/07 09:02:35;;;;;;;2.60;2.40;;;;;;;;;;4961554;28;20134;-78
2023/11/07 09:05:03;;;;;;;3.97;3.08;;;;;;;;;;4994748;28;20085;-79
2023/11/07 09:07:29;;;;;;;1.85;1.77;;;;;;;;;;4966470;28;20078;-79
2023/11/07 09:09:55;;;;;;;4.50;3.10;;;;;;;;;;4973308;28;20042;-79
2023/11/07 09:12:21;;;;;;;3.15;2.85;;;;;;;;;;4991990;28;20500;-82
2023/11/07 09:14:47;;;;;;;3.10;2.90;;;;;;;;;;4976646;28;20070;-80
2023/11/07 09:17:13;;;;;;;4.53;2.90;;;;;;;;;;4973974;28;20073;-81
2023/11/07 09:19:41;;;;;;;4.30;3.90;;;;;;;;;;4974626;28;20382;-76
2023/11/07 09:22:09;;;;;;;6.10;4.15;;;;;;;;;;4975718;28;20034;-79
2023/11/07 09:24:35;;;;;;;4.78;4.10;;;;;;;;;;4978210;28;20027;-81
2023/11/07 09:27:01;;;;;;;5.50;4.50;;;;;;;;;;4988068;28;20062;-78
2023/11/07 09:29:27;;;;;;;4.38;3.97;;;;;;;;;;4979102;28;20015;-78
2023/11/07 09:31:53;;;;;;;3.25;3.00;;;;;;;;;;5006094;28;20082;-78
2023/11/07 09:34:20;;;;;;;2.78;2.58;;;;;;;;;;5004847;28;20505;-78
2023/11/07 09:36:47;;;;;;;3.15;2.58;;;;;;;;;;4994324;28;20061;-79
2023/11/07 09:39:13;;;;;;;3.95;3.42;;;;;;;;;;5000965;28;20046;-77
2023/11/07 09:41:42;;;;;;;3.38;3.10;;;;;;;;;;4993288;28;20057;-77
2023/11/07 09:44:10;;;;;;;1.80;1.70;;;;;;;;;;4991368;28;20118;-77
2023/11/07 09:46:36;;;;;;;2.53;2.38;;;;;;;;;;4974170;28;20377;-76
2023/11/07 09:49:02;;;;;;;1.73;1.63;;;;;;;;;;4970985;28;20759;-76
2023/11/07 09:51:29;;;;;;;2.22;2.13;;;;;;;;;;4987922;28;20026;-81
2023/11/07 09:53:54;;;;;;;4.13;1.98;;;;;;;;;;4984527;28;20045;-82
2023/11/07 09:56:21;;;;;;;3.05;2.05;;;;;;;;;;4966718;28;20417;-82
2023/11/07 09:58:48;;;;;;;2.22;2.03;;;;;;;;;;4992261;28;20038;-79
2023/11/07 10:01:14;;;;;;;2.05;1.95;;;;;;;;;;4990622;28;20580;-78
2023/11/07 10:03:40;;;;;;;3.55;2.45;;;;;;;;;;4973274;28;20186;-77
2023/11/07 10:06:06;;;;;;;2.20;2.00;;;;;;;;;;4989586;28;20030;-79
2023/11/07 10:08:32;;;;;;;2.58;1.52;;;;;;;;;;4985550;28;20516;-79
2023/11/07 10:11:11;;;;;;;1.75;1.65;;;;;;;;;;4989946;28;20041;-75
2023/11/07 10:13:37;;;;;;;1.67;1.58;;;;;;;;;;4992118;28;20096;-79
2023/11/07 10:16:07;;;;;;;1.08;1.00;;;;;;;;;;4991116;28;20057;-79
2023/11/07 10:18:53;;;;;;;1.05;1.05;;;;;;;;;;4991466;28;20069;-79
2023/11/07 10:21:30;;;;;;;2.72;0.95;;;;;;;;;;4967832;28;20165;-79
2023/11/07 10:23:57;;;;;;;1.67;1.45;;;;;;;;;;4993409;28;20518;-79
2023/11/07 10:26:24;;;;;;;10.35;1.30;;;;;;;;;;4992535;28;20034;-80
2023/11/07 10:29:03;;;;;;;1.30;1.20;;;;;;;;;;4992538;28;20104;-79
2023/11/07 10:31:29;;;;;;;1.15;1.05;;;;;;;;;;4992077;28;20050;-80
2023/11/07 10:34:06;;;;;;;0.90;0.90;;;;;;;;;;4998192;28;20034;-82
2023/11/07 10:36:38;;;;;;;1.38;0.85;;;;;;;;;;4962991;28;20085;-80
2023/11/07 10:39:04;;;;;;;1.70;1.20;;;;;;;;;;5002735;28;20068;-81
2023/11/07 10:41:30;;;;;;;1.05;1.05;;;;;;;;;;5001635;28;20027;-82
2023/11/07 10:43:58;;;;;;;1.25;1.23;;;;;;;;;;4977027;28;20038;-80
2023/11/07 10:46:24;;;;;;;1.33;1.23;;;;;;;;;;4983768;28;20038;-84
2023/11/07 10:48:51;;;;;;;0.90;0.90;;;;;;;;;;4995742;28;20124;-82
2023/11/07 10:51:17;;;;;;;1.85;1.42;;;;;;;;;;4993090;28;20034;-84
2023/11/07 10:53:43;;;;;;;1.77;1.40;;;;;;;;;;5013558;28;20532;-82
2023/11/07 10:56:13;;;;;;;1.02;0.93;;;;;;;;;;4991594;28;20043;-82
2023/11/07 10:58:59;;;;;;;0.75;0.75;;;;;;;;;;4974228;28;20035;-82
2023/11/07 11:01:26;;;;;;;1.30;1.30;;;;;;;;;;4968714;28;20316;-79
2023/11/07 11:03:52;;;;;;;0.95;0.95;;;;;;;;;;4990526;28;20049;-79
2023/11/07 11:06:23;;;;;;;0.90;0.90;;;;;;;;;;4991661;28;20038;-81
2023/11/07 11:08:48;;;;;;;;;;;;;;;;;;4962915;28;20053;-82
2023/11/07 11:11:14;;;;;;;1.52;1.30;;;;;;;;;;4988006;28;20413;-80
2023/11/07 11:13:41;;;;;;;1.95;0.85;;;;;;;;;;4984256;28;20172;-80
2023/11/07 11:16:08;;;;;;;1.20;1.20;;;;;;;;;;4989394;28;20030;-78
2023/11/07 11:18:37;;;;;;;1.23;1.23;;;;;;;;;;4993351;28;20027;-79
2023/11/07 11:21:16;;;;;;;1.55;1.45;;;;;;;;;;4978991;28;20511;-80
2023/11/07 11:24:21;;;;;;;1.10;1.10;;;;;;;;;;4974467;28;20560;-80
2023/11/07 11:26:48;;;;;;;1.55;1.45;;;;;;;;;;4940154;29;20031;-77
2023/11/07 11:29:27;;;;;;;1.02;0.98;;;;;;;;;;4955099;29;20043;-81
2023/11/07 11:31:53;;;;;;;1.70;1.60;;;;;;;;;;4960466;28;20531;-78
2023/11/07 11:34:23;;;;;;;1.08;1.08;;;;;;;;;;4993920;28;20065;-78
2023/11/07 11:36:53;;;;;;;3.45;1.70;;;;;;;;;;4979934;28;20034;-77
2023/11/07 11:39:37;;;;;;;1.77;1.60;;;;;;;;;;4986158;28;20034;-79
2023/11/07 11:42:05;;;;;;;1.67;1.60;;;;;;;;;;4983983;28;20038;-80
2023/11/07 11:44:31;;;;;;;1.25;1.25;;;;;;;;;;4977225;28;20053;-78
2023/11/07 11:46:57;;;;;;;1.70;1.60;;;;;;;;;;4986516;28;20034;-81
2023/11/07 11:49:23;;;;;;;1.73;1.63;;;;;;;;;;4981824;28;20038;-80
2023/11/07 11:51:51;;;;;;;1.70;1.60;;;;;;;;;;4992248;28;20121;-79
2023/11/07 11:54:24;;;;;;;2.10;1.90;;;;;;;;;;4973361;28;20149;-80
2023/11/07 11:56:50;;;;;;;1.52;1.52;;;;;;;;;;4975406;28;20544;-79
2023/11/07 11:59:16;;;;;;;1.80;1.70;;;;;;;;;;4986473;28;20042;-80
2023/11/07 12:01:49;;;;;;;2.20;1.60;;;;;;;;;;4974640;28;20139;-83
2023/11/07 12:04:28;;;;;;;1.48;1.38;;;;;;;;;;4983819;28;20070;-82
2023/11/07 12:07:06;;;;;;;1.80;1.70;;;;;;;;;;4979975;28;20035;-82
2023/11/07 12:09:33;;;;;;;1.17;1.13;;;;;;;;;;4992087;28;20548;-81
2023/11/07 12:11:59;;;;;;;2.97;1.98;;;;;;;;;;4993016;28;20042;-83
2023/11/07 12:14:25;;;;;;;1.30;1.25;;;;;;;;;;4968654;28;20038;-82
2023/11/07 12:16:55;;;;;;;2.80;1.60;;;;;;;;;;5009438;28;20109;-82
2023/11/07 12:19:21;;;;;;;1.83;1.73;;;;;;;;;;4962656;28;20059;-79
2023/11/07 12:21:49;;;;;;;2.00;1.90;;;;;;;;;;4982484;28;20563;-77
2023/11/07 12:24:17;;;;;;;1.80;1.70;;;;;;;;;;5003968;28;20043;-78
2023/11/07 12:26:43;;;;;;;2.20;2.10;;;;;;;;;;4995138;28;20035;-79
2023/11/07 12:29:09;;;;;;;2.42;2.20;;;;;;;;;;5000244;28;20551;-80
2023/11/07 12:31:36;;;;;;;1.67;1.55;;;;;;;;;;4996568;28;20132;-80
2023/11/07 12:34:02;;;;;;;2.22;2.13;;;;;;;;;;4995857;28;20048;-81
2023/11/07 12:36:29;;;;;;;1.83;1.73;;;;;;;;;;4998287;28;20042;-81
2023/11/07 12:38:55;;;;;;;2.00;1.90;;;;;;;;;;5007105;28;20034;-80
2023/11/07 12:41:21;;;;;;;2.10;2.00;;;;;;;;;;5001018;28;20471;-83
2023/11/07 12:43:48;;;;;;;1.42;1.33;;;;;;;;;;4998641;28;20038;-78
2023/11/07 12:46:16;;;;;;;2.15;2.00;;;;;;;;;;5003666;28;20535;-83
2023/11/07 12:48:44;;;;;;;1.35;1.33;;;;;;;;;;5002197;28;20141;-84
2023/11/07 12:51:11;;;;;;;2.40;2.20;;;;;;;;;;5002118;28;20119;-81
2023/11/07 12:53:49;;;;;;;4.07;2.08;;;;;;;;;;4980994;28;20497;-81
2023/11/07 12:56:22;;;;;;;1.60;1.60;;;;;;;;;;4969648;28;20030;-81
2023/11/07 12:58:48;;;;;;;1.80;1.70;;;;;;;;;;4980117;28;20082;-80
2023/11/07 13:01:15;;;;;;;1.63;1.33;;;;;;;;;;5000291;28;20042;-79
2023/11/07 13:03:41;;;;;;;5.00;1.48;;;;;;;;;;4991089;28;20042;-83
2023/11/07 13:06:11;;;;;;;1.50;1.45;;;;;;;;;;5003412;28;20179;-82
2023/11/07 13:08:38;;;;;;;1.58;1.58;;;;;;;;;;4998019;28;20416;-80
2023/11/07 13:11:12;;;;;;;1.58;1.48;;;;;;;;;;4995718;28;20088;-79
2023/11/07 13:13:39;;;;;;;0.88;0.88;;;;;;;;;;4992000;28;20042;-82
2023/11/07 13:16:07;;;;;;;1.60;1.50;;;;;;;;;;5001639;28;20034;-82
2023/11/07 13:18:36;;;;;;;1.77;1.70;;;;;;;;;;4984645;28;20030;-80
2023/11/07 13:21:06;;;;;;;7.60;2.05;;;;;;;;;;4978008;28;20129;-79
2023/11/07 13:23:31;;;;;;;1.63;1.52;;;;;;;;;;4993313;28;20027;-79
2023/11/07 13:26:00;;;;;;;1.35;1.33;;;;;;;;;;4974831;28;20567;-80
2023/11/07 13:28:26;;;;;;;1.20;1.20;;;;;;;;;;4987149;28;20089;-81
2023/11/07 13:30:52;;;;;;;2.42;2.22;;;;;;;;;;4994118;28;20136;-81
2023/11/07 13:33:19;;;;;;;1.35;1.35;;;;;;;;;;4994982;28;20049;-82
2023/11/07 13:35:47;;;;;;;2.17;1.90;;;;;;;;;;4995528;28;20573;-79
2023/11/07 13:38:19;;;;;;;2.05;1.80;;;;;;;;;;5008606;28;20112;-80
2023/11/07 13:40:45;;;;;;;2.00;1.80;;;;;;;;;;4993840;28;20039;-78
2023/11/07 13:43:11;;;;;;;2.88;1.60;;;;;;;;;;4993031;28;20497;-80
2023/11/07 13:45:38;;;;;;;1.73;1.40;;;;;;;;;;4992723;28;20062;-81
2023/11/07 13:48:05;;;;;;;1.35;1.33;;;;;;;;;;4994491;28;20053;-81
2023/11/07 13:50:31;;;;;;;1.63;1.52;;;;;;;;;;4998084;28;20030;-80
2023/11/07 13:52:58;;;;;;;1.67;1.55;;;;;;;;;;4997204;28;20073;-82
2023/11/07 13:55:24;;;;;;;1.98;1.83;;;;;;;;;;4978408;28;20117;-81
2023/11/07 13:57:52;;;;;;;1.70;1.60;;;;;;;;;;4995413;28;20062;-80
2023/11/07 14:00:18;;;;;;;1.65;1.58;;;;;;;;;;4994679;28;20026;-80
2023/11/07 14:02:46;;;;;;;1.70;1.60;;;;;;;;;;5005611;28;20041;-80
2023/11/07 14:05:12;;;;;;;3.17;1.45;;;;;;;;;;4999789;28;20030;-81
2023/11/07 14:07:39;;;;;;;1.92;1.83;;;;;;;;;;5000317;28;20467;-82
2023/11/07 14:10:10;;;;;;;2.00;1.90;;;;;;;;;;5001634;28;20041;-81
2023/11/07 14:12:40;;;;;;;1.90;1.80;;;;;;;;;;5012728;28;20598;-78
2023/11/07 14:15:06;;;;;;;2.05;1.60;;;;;;;;;;4977805;28;20041;-80
2023/11/07 14:17:33;;;;;;;2.75;1.90;;;;;;;;;;4995032;28;20121;-81
2023/11/07 14:19:59;;;;;;;2.28;1.48;;;;;;;;;;4993430;28;20056;-81
2023/11/07 14:22:28;;;;;;;2.13;1.98;;;;;;;;;;5008421;28;20527;-80
2023/11/07 14:24:58;;;;;;;1.48;1.48;;;;;;;;;;4993719;28;20030;-77
2023/11/07 14:27:25;;;;;;;1.95;1.80;;;;;;;;;;4999978;28;20041;-78
2023/11/07 14:29:51;;;;;;;1.63;1.55;;;;;;;;;;4994015;28;20069;-74
2023/11/07 14:32:17;;;;;;;1.70;1.60;;;;;;;;;;4975876;28;20054;-77
2023/11/07 14:34:43;;;;;;;2.03;1.92;;;;;;;;;;4974952;28;20034;-77
2023/11/07 14:37:09;;;;;;;1.63;1.55;;;;;;;;;;4984849;28;20037;-77
2023/11/07 14:39:35;;;;;;;1.63;1.52;;;;;;;;;;4994494;28;20511;-76
2023/11/07 14:42:04;;;;;;;2.67;2.05;;;;;;;;;;4973470;28;20080;-77
2023/11/07 14:44:30;;;;;;;1.92;1.83;;;;;;;;;;4958629;28;20141;-78